Time;durP1;ratioP1;P1;durP2;ratioP2;P2;SDS_P1;SDS_P2;PMS_P1;PMS_P2;Temp;Humidity;BMP_temperature;BMP_pressure;BME280_temperature;BME280_humidity;BME280_pressure;Samples;Min_cycle;Max_cycle;Signal;HPM_P1;HPM_P2
2022/06/30 00:02:24;;;;;;;7.60;6.13;;;;;;;;;;5072582;28;20062;-66
2022/06/30 00:04:50;;;;;;;8.55;6.38;;;;;;;;;;5072972;28;20048;-66
2022/06/30 00:07:17;;;;;;;7.97;6.07;;;;;;;;;;5072725;28;20053;-67
2022/06/30 00:09:44;;;;;;;8.63;6.35;;;;;;;;;;5071312;28;20044;-67
2022/06/30 00:12:11;;;;;;;7.85;6.35;;;;;;;;;;5072453;28;20047;-67
2022/06/30 00:14:37;;;;;;;8.30;6.63;;;;;;;;;;5072341;28;20045;-67
2022/06/30 00:17:05;;;;;;;9.32;6.53;;;;;;;;;;5071405;28;20052;-67
2022/06/30 00:19:32;;;;;;;8.48;6.72;;;;;;;;;;5072286;28;20481;-66
2022/06/30 00:21:59;;;;;;;7.35;6.57;;;;;;;;;;5071036;28;20118;-66
2022/06/30 00:24:25;;;;;;;7.07;6.47;;;;;;;;;;5072252;28;20045;-66
2022/06/30 00:26:53;;;;;;;7.45;6.70;;;;;;;;;;5071021;28;20056;-66
2022/06/30 00:29:19;;;;;;;7.80;7.00;;;;;;;;;;5072361;28;20109;-67
2022/06/30 00:31:46;;;;;;;9.65;7.05;;;;;;;;;;5072168;28;20047;-67
2022/06/30 00:34:13;;;;;;;7.22;6.50;;;;;;;;;;5072209;28;20048;-66
2022/06/30 00:36:40;;;;;;;7.93;5.88;;;;;;;;;;5070784;28;20557;-67
2022/06/30 00:39:07;;;;;;;8.88;6.15;;;;;;;;;;5054290;28;20564;-66
2022/06/30 00:41:34;;;;;;;6.75;6.15;;;;;;;;;;5071746;28;20057;-67
2022/06/30 00:44:01;;;;;;;7.72;6.40;;;;;;;;;;5071852;28;20102;-67
2022/06/30 00:46:27;;;;;;;7.03;6.43;;;;;;;;;;5071809;28;20049;-66
2022/06/30 00:48:54;;;;;;;8.32;6.20;;;;;;;;;;5070730;28;20073;-67
2022/06/30 00:51:23;;;;;;;7.88;6.05;;;;;;;;;;5054252;28;20060;-67
2022/06/30 00:53:50;;;;;;;7.13;6.43;;;;;;;;;;5070472;28;20135;-67
2022/06/30 00:56:17;;;;;;;11.73;6.18;;;;;;;;;;5070765;28;20064;-68
2022/06/30 00:58:43;;;;;;;8.32;5.90;;;;;;;;;;5070696;28;20094;-67
2022/06/30 01:01:11;;;;;;;6.68;6.07;;;;;;;;;;5070484;28;20049;-68
2022/06/30 01:03:38;;;;;;;6.88;6.20;;;;;;;;;;5054309;28;20152;-68
2022/06/30 01:06:05;;;;;;;6.70;6.10;;;;;;;;;;5070601;28;20045;-68
2022/06/30 01:08:33;;;;;;;8.18;7.00;;;;;;;;;;5070573;28;20461;-67
2022/06/30 01:13:46;;;;;;;7.60;6.90;;;;;;;;;;5070945;28;20044;-67
2022/06/30 01:16:13;;;;;;;7.97;6.80;;;;;;;;;;5070751;28;20053;-67
2022/06/30 01:18:40;;;;;;;7.15;6.45;;;;;;;;;;5071597;28;20731;-68
2022/06/30 01:21:06;;;;;;;7.95;6.40;;;;;;;;;;5053751;28;20048;-67
2022/06/30 01:23:33;;;;;;;9.68;6.93;;;;;;;;;;5071654;28;20044;-68
2022/06/30 01:25:59;;;;;;;9.70;6.95;;;;;;;;;;5071633;28;20737;-68
2022/06/30 01:28:26;;;;;;;10.93;7.25;;;;;;;;;;5071482;28;20514;-68
2022/06/30 01:30:53;;;;;;;8.45;7.60;;;;;;;;;;5071434;28;20060;-67
2022/06/30 01:33:20;;;;;;;8.55;7.10;;;;;;;;;;5053836;28;20054;-67
2022/06/30 01:35:47;;;;;;;8.20;7.50;;;;;;;;;;5071456;28;20056;-68
2022/06/30 01:38:13;;;;;;;7.35;6.70;;;;;;;;;;5071622;28;20518;-69
2022/06/30 01:40:40;;;;;;;8.05;7.20;;;;;;;;;;5074822;28;20479;-67
2022/06/30 01:43:11;;;;;;;8.10;7.32;;;;;;;;;;5057815;28;20491;-67
2022/06/30 01:45:39;;;;;;;9.30;7.25;;;;;;;;;;5074949;28;20473;-69
2022/06/30 01:48:06;;;;;;;13.93;7.97;;;;;;;;;;5075353;28;20048;-68
2022/06/30 01:50:34;;;;;;;8.50;7.60;;;;;;;;;;5075627;28;20122;-67
2022/06/30 01:53:01;;;;;;;7.93;7.22;;;;;;;;;;5057706;28;20080;-66
2022/06/30 01:55:28;;;;;;;8.38;7.03;;;;;;;;;;5074171;28;20048;-67
2022/06/30 01:57:54;;;;;;;12.85;7.35;;;;;;;;;;5075395;28;20063;-67
2022/06/30 02:00:26;;;;;;;9.13;7.70;;;;;;;;;;5075041;28;20048;-67
2022/06/30 02:02:54;;;;;;;7.90;7.20;;;;;;;;;;5073744;28;20045;-67
2022/06/30 02:05:21;;;;;;;8.73;7.78;;;;;;;;;;5074116;28;20048;-66
2022/06/30 02:07:48;;;;;;;11.07;7.03;;;;;;;;;;5075316;28;20048;-68
2022/06/30 02:10:20;;;;;;;9.32;8.43;;;;;;;;;;5074957;28;20052;-68
2022/06/30 02:12:47;;;;;;;11.30;8.03;;;;;;;;;;5073578;28;20084;-68
2022/06/30 02:15:21;;;;;;;11.40;7.32;;;;;;;;;;5073530;28;20048;-68
2022/06/30 02:17:53;;;;;;;10.57;7.18;;;;;;;;;;5073528;28;20052;-68
2022/06/30 02:20:23;;;;;;;10.88;7.60;;;;;;;;;;5073570;28;20080;-67
2022/06/30 02:22:54;;;;;;;7.95;7.22;;;;;;;;;;5057410;28;20512;-68
2022/06/30 02:25:20;;;;;;;9.93;6.85;;;;;;;;;;5057113;28;20049;-67
2022/06/30 02:27:47;;;;;;;8.10;7.40;;;;;;;;;;5056988;28;20059;-67
2022/06/30 02:30:14;;;;;;;9.77;7.70;;;;;;;;;;5056969;28;20059;-68
2022/06/30 02:32:41;;;;;;;13.57;7.72;;;;;;;;;;5073205;28;20049;-68
2022/06/30 02:35:08;;;;;;;7.72;6.95;;;;;;;;;;5074428;28;20105;-68
2022/06/30 02:37:35;;;;;;;8.98;8.07;;;;;;;;;;5073112;28;20491;-68
2022/06/30 02:40:02;;;;;;;9.32;7.45;;;;;;;;;;5073247;28;20060;-66
2022/06/30 02:42:29;;;;;;;8.48;7.60;;;;;;;;;;5072839;28;20048;-68
2022/06/30 02:44:55;;;;;;;8.55;7.68;;;;;;;;;;5073015;28;20052;-67
2022/06/30 02:47:33;;;;;;;10.70;7.75;;;;;;;;;;5074394;28;20053;-67
2022/06/30 02:50:03;;;;;;;10.90;8.50;;;;;;;;;;5074099;28;20461;-67
2022/06/30 02:52:34;;;;;;;9.00;8.15;;;;;;;;;;5073574;28;20048;-67
2022/06/30 02:55:01;;;;;;;9.13;7.75;;;;;;;;;;5073899;28;20048;-68
2022/06/30 02:57:27;;;;;;;10.20;8.25;;;;;;;;;;5074024;28;20495;-69
2022/06/30 02:59:54;;;;;;;8.55;7.75;;;;;;;;;;5072980;28;20052;-67
2022/06/30 03:02:21;;;;;;;8.57;7.70;;;;;;;;;;5072442;28;20049;-68
2022/06/30 03:04:48;;;;;;;10.25;7.93;;;;;;;;;;5072569;28;20056;-67
2022/06/30 03:07:15;;;;;;;8.85;7.60;;;;;;;;;;5055996;28;20506;-67
2022/06/30 03:09:42;;;;;;;9.93;8.05;;;;;;;;;;5074306;28;20075;-68
2022/06/30 03:12:09;;;;;;;8.70;7.82;;;;;;;;;;5073836;28;20045;-67
2022/06/30 03:14:35;;;;;;;10.43;8.75;;;;;;;;;;5073851;28;20044;-68
2022/06/30 03:17:02;;;;;;;8.98;8.05;;;;;;;;;;5073799;28;20440;-66
2022/06/30 03:19:29;;;;;;;10.00;7.40;;;;;;;;;;5087326;22;20063;-65
2022/06/30 03:21:56;;;;;;;9.05;7.93;;;;;;;;;;5053290;28;20056;-65
2022/06/30 03:24:22;;;;;;;10.98;7.55;;;;;;;;;;5053704;28;20048;-65
2022/06/30 03:26:49;;;;;;;10.30;8.60;;;;;;;;;;5053586;28;20056;-65
2022/06/30 03:29:16;;;;;;;10.85;7.85;;;;;;;;;;5053479;28;20076;-65
2022/06/30 03:31:43;;;;;;;9.32;7.97;;;;;;;;;;5053275;28;20045;-65
2022/06/30 03:34:10;;;;;;;8.80;7.88;;;;;;;;;;5053087;28;20098;-66
2022/06/30 03:36:36;;;;;;;9.63;8.73;;;;;;;;;;5053120;28;20049;-65
2022/06/30 03:39:03;;;;;;;9.45;8.55;;;;;;;;;;5053375;28;20048;-66
2022/06/30 03:41:30;;;;;;;11.10;8.82;;;;;;;;;;5053092;28;20053;-66
2022/06/30 03:43:57;;;;;;;9.52;8.68;;;;;;;;;;5052990;28;20077;-66
2022/06/30 03:46:23;;;;;;;9.70;8.70;;;;;;;;;;5053032;28;20049;-66
2022/06/30 03:48:50;;;;;;;11.55;8.50;;;;;;;;;;5052919;28;20045;-66
2022/06/30 03:51:17;;;;;;;9.95;9.02;;;;;;;;;;5052596;28;20511;-66
2022/06/30 03:53:44;;;;;;;14.07;10.52;;;;;;;;;;5053477;28;20045;-66
2022/06/30 03:56:11;;;;;;;10.43;9.38;;;;;;;;;;5051762;28;20045;-66
2022/06/30 03:58:37;;;;;;;10.23;9.23;;;;;;;;;;5052857;28;20056;-65
2022/06/30 04:01:04;;;;;;;10.90;9.43;;;;;;;;;;5052728;28;20057;-65
2022/06/30 04:03:31;;;;;;;11.00;9.80;;;;;;;;;;5051999;28;20483;-67
2022/06/30 04:05:57;;;;;;;10.13;8.98;;;;;;;;;;5052751;28;20049;-66
2022/06/30 04:08:24;;;;;;;10.00;9.00;;;;;;;;;;5053018;28;20053;-66
2022/06/30 04:10:51;;;;;;;10.57;9.55;;;;;;;;;;5052678;28;20053;-66
2022/06/30 04:13:18;;;;;;;10.40;9.38;;;;;;;;;;5052441;28;20045;-66
2022/06/30 04:15:45;;;;;;;12.32;9.23;;;;;;;;;;5052699;28;20053;-65
2022/06/30 04:18:12;;;;;;;14.43;9.50;;;;;;;;;;5052336;28;20049;-65
2022/06/30 04:20:39;;;;;;;10.50;9.35;;;;;;;;;;5052122;28;20045;-66
2022/06/30 04:23:06;;;;;;;12.27;9.38;;;;;;;;;;5052219;28;20657;-66
2022/06/30 04:25:33;;;;;;;10.98;9.43;;;;;;;;;;5052232;28;20056;-66
2022/06/30 04:28:00;;;;;;;10.02;9.00;;;;;;;;;;5052258;28;20056;-66
2022/06/30 04:33:13;;;;;;;9.52;8.63;;;;;;;;;;5052447;28;20049;-65
2022/06/30 04:35:40;;;;;;;10.90;9.80;;;;;;;;;;5051982;28;20491;-66
2022/06/30 04:38:07;;;;;;;10.25;8.95;;;;;;;;;;5052441;28;20422;-65
2022/06/30 04:43:19;;;;;;;9.70;8.75;;;;;;;;;;5051899;28;20049;-65
2022/06/30 04:45:45;;;;;;;9.55;8.55;;;;;;;;;;5052165;28;20144;-65
2022/06/30 04:48:12;;;;;;;10.35;8.90;;;;;;;;;;5051850;28;20052;-66
2022/06/30 04:50:39;;;;;;;9.90;8.43;;;;;;;;;;5051772;28;20092;-66
2022/06/30 04:53:06;;;;;;;10.52;8.02;;;;;;;;;;5067034;28;20045;-66
2022/06/30 04:55:33;;;;;;;10.43;8.98;;;;;;;;;;5052066;28;20045;-66
2022/06/30 04:58:00;;;;;;;9.95;9.00;;;;;;;;;;5050761;28;20052;-66
2022/06/30 05:00:26;;;;;;;11.20;10.20;;;;;;;;;;5051716;28;20518;-66
2022/06/30 05:02:53;;;;;;;9.25;8.30;;;;;;;;;;5051741;28;20511;-67
2022/06/30 05:05:20;;;;;;;10.15;9.15;;;;;;;;;;5051614;28;20060;-65
2022/06/30 05:07:46;;;;;;;10.43;9.50;;;;;;;;;;5051806;28;20130;-65
2022/06/30 05:10:13;;;;;;;12.75;8.57;;;;;;;;;;5051454;28;20091;-65
2022/06/30 05:12:40;;;;;;;12.90;8.68;;;;;;;;;;5051296;28;20525;-65
2022/06/30 05:15:07;;;;;;;16.75;8.82;;;;;;;;;;5050716;28;20049;-65
2022/06/30 05:17:34;;;;;;;11.77;9.68;;;;;;;;;;5051495;28;20049;-65
2022/06/30 05:20:01;;;;;;;10.70;8.55;;;;;;;;;;5051396;28;20049;-65
2022/06/30 05:22:28;;;;;;;9.23;8.20;;;;;;;;;;5051511;28;20057;-65
2022/06/30 05:27:40;;;;;;;10.05;8.07;;;;;;;;;;5051909;28;20049;-65
2022/06/30 05:30:07;;;;;;;10.00;7.45;;;;;;;;;;5051473;28;20048;-65
2022/06/30 05:32:34;;;;;;;8.55;7.80;;;;;;;;;;5051620;28;20414;-65
2022/06/30 05:35:01;;;;;;;12.05;7.90;;;;;;;;;;5051339;28;20049;-65
2022/06/30 05:37:27;;;;;;;8.65;7.80;;;;;;;;;;5051391;28;20056;-65
2022/06/30 05:39:54;;;;;;;8.77;7.78;;;;;;;;;;5051693;28;20049;-65
2022/06/30 05:42:21;;;;;;;10.23;7.22;;;;;;;;;;5051379;28;20049;-65
2022/06/30 05:44:48;;;;;;;11.93;7.47;;;;;;;;;;5051242;28;20099;-65
2022/06/30 05:47:14;;;;;;;9.45;7.95;;;;;;;;;;5051315;28;20060;-65
2022/06/30 05:49:41;;;;;;;9.77;7.47;;;;;;;;;;5051211;28;20049;-65
2022/06/30 05:52:07;;;;;;;7.95;7.10;;;;;;;;;;5051049;28;20585;-66
2022/06/30 05:54:34;;;;;;;7.85;7.10;;;;;;;;;;5051322;28;20045;-65
2022/06/30 05:57:01;;;;;;;6.93;6.22;;;;;;;;;;5051148;28;20517;-65
2022/06/30 05:59:28;;;;;;;8.80;6.75;;;;;;;;;;5051300;28;20048;-66
2022/06/30 06:01:55;;;;;;;8.55;7.43;;;;;;;;;;5051047;28;20060;-65
2022/06/30 06:04:21;;;;;;;7.53;6.82;;;;;;;;;;5051175;28;20087;-65
2022/06/30 06:06:49;;;;;;;6.88;6.15;;;;;;;;;;5051289;28;20423;-65
2022/06/30 06:09:15;;;;;;;8.52;7.00;;;;;;;;;;5051187;28;20423;-65
2022/06/30 06:11:42;;;;;;;8.57;7.18;;;;;;;;;;5050947;28;20060;-65
2022/06/30 06:14:09;;;;;;;9.98;7.75;;;;;;;;;;5051004;28;20052;-65
2022/06/30 06:16:36;;;;;;;7.85;7.15;;;;;;;;;;5051216;28;20055;-65
2022/06/30 06:19:03;;;;;;;7.65;6.88;;;;;;;;;;5050669;28;20059;-65
2022/06/30 06:21:29;;;;;;;7.95;6.85;;;;;;;;;;5051162;28;20106;-65
2022/06/30 06:23:56;;;;;;;7.82;6.78;;;;;;;;;;5051145;28;20052;-65
2022/06/30 06:26:22;;;;;;;7.60;6.80;;;;;;;;;;5053591;28;20068;-65
2022/06/30 06:29:08;;;;;;;7.50;6.40;;;;;;;;;;5054508;28;20049;-66
2022/06/30 06:31:39;;;;;;;6.30;5.70;;;;;;;;;;5054212;28;20053;-65
2022/06/30 06:34:06;;;;;;;8.00;6.55;;;;;;;;;;5054421;28;20045;-65
2022/06/30 06:36:33;;;;;;;8.20;5.95;;;;;;;;;;5054663;28;20064;-65
2022/06/30 06:39:00;;;;;;;7.30;6.60;;;;;;;;;;5054453;28;20049;-65
2022/06/30 06:41:26;;;;;;;6.28;5.65;;;;;;;;;;5054259;28;20049;-65
2022/06/30 06:43:53;;;;;;;6.28;5.65;;;;;;;;;;5054212;28;20049;-65
2022/06/30 06:46:26;;;;;;;8.73;5.53;;;;;;;;;;5054324;28;20065;-65
2022/06/30 06:48:57;;;;;;;9.43;6.72;;;;;;;;;;5068660;28;20150;-65
2022/06/30 06:51:24;;;;;;;7.30;6.00;;;;;;;;;;5054084;28;20052;-65
2022/06/30 06:53:51;;;;;;;7.35;6.03;;;;;;;;;;5053935;28;20267;-65
2022/06/30 06:56:18;;;;;;;8.10;5.30;;;;;;;;;;5054268;28;20057;-65
2022/06/30 06:58:45;;;;;;;6.68;5.85;;;;;;;;;;5053921;28;20049;-65
2022/06/30 07:01:12;;;;;;;7.05;5.90;;;;;;;;;;5053713;28;20053;-65
2022/06/30 07:03:38;;;;;;;6.00;5.43;;;;;;;;;;5053773;28;20435;-65
2022/06/30 07:06:06;;;;;;;8.13;5.40;;;;;;;;;;5053895;28;20064;-65
2022/06/30 07:08:32;;;;;;;9.07;5.75;;;;;;;;;;5054187;28;20053;-65
2022/06/30 07:10:59;;;;;;;8.07;5.97;;;;;;;;;;5053562;28;20059;-65
2022/06/30 07:13:27;;;;;;;7.13;5.38;;;;;;;;;;5053578;28;20045;-65
2022/06/30 07:15:54;;;;;;;7.53;5.00;;;;;;;;;;5053878;28;20049;-65
2022/06/30 07:18:20;;;;;;;5.68;4.93;;;;;;;;;;5053504;28;20059;-65
2022/06/30 07:20:48;;;;;;;6.13;5.35;;;;;;;;;;5053275;28;20056;-65
2022/06/30 07:23:15;;;;;;;7.90;5.40;;;;;;;;;;5053520;28;20053;-65
2022/06/30 07:25:57;;;;;;;5.15;4.57;;;;;;;;;;5053457;28;20056;-65
2022/06/30 07:28:24;;;;;;;7.57;5.30;;;;;;;;;;5053391;28;20060;-65
2022/06/30 07:31:12;;;;;;;7.47;5.20;;;;;;;;;;5053173;28;20055;-65
2022/06/30 07:33:41;;;;;;;6.15;4.68;;;;;;;;;;5053124;28;20279;-65
2022/06/30 07:36:08;;;;;;;6.63;4.43;;;;;;;;;;5052884;28;20056;-65
2022/06/30 07:38:34;;;;;;;6.20;4.68;;;;;;;;;;5052588;28;20056;-65
2022/06/30 07:41:01;;;;;;;5.60;4.28;;;;;;;;;;5053155;28;20423;-65
2022/06/30 07:43:28;;;;;;;6.38;4.50;;;;;;;;;;5053004;28;20048;-65
2022/06/30 07:45:54;;;;;;;6.18;4.03;;;;;;;;;;5053052;28;20053;-65
2022/06/30 07:48:21;;;;;;;4.00;3.60;;;;;;;;;;5053040;28;20049;-65
2022/06/30 07:50:48;;;;;;;4.97;4.20;;;;;;;;;;5052596;28;20057;-65
2022/06/30 07:53:14;;;;;;;8.13;4.45;;;;;;;;;;5052819;28;20555;-65
2022/06/30 07:55:41;;;;;;;6.22;4.25;;;;;;;;;;5053137;28;20045;-65
2022/06/30 07:58:08;;;;;;;4.93;4.38;;;;;;;;;;5052891;28;20056;-66
2022/06/30 08:00:34;;;;;;;4.22;3.47;;;;;;;;;;5052731;28;20060;-65
2022/06/30 08:03:01;;;;;;;7.35;3.80;;;;;;;;;;5052576;28;20048;-66
2022/06/30 08:05:28;;;;;;;3.90;3.20;;;;;;;;;;5053201;28;20513;-65
2022/06/30 08:07:54;;;;;;;5.28;3.63;;;;;;;;;;5052897;28;20052;-66
2022/06/30 08:10:21;;;;;;;4.35;3.90;;;;;;;;;;5052529;28;20132;-65
2022/06/30 08:12:47;;;;;;;3.65;3.35;;;;;;;;;;5052599;28;20059;-65
2022/06/30 08:15:14;;;;;;;4.22;3.83;;;;;;;;;;5052482;28;20045;-65
2022/06/30 08:17:42;;;;;;;6.55;3.75;;;;;;;;;;5052438;28;20458;-65
2022/06/30 08:20:09;;;;;;;3.88;3.38;;;;;;;;;;5052317;28;20411;-66
2022/06/30 08:22:35;;;;;;;6.45;4.18;;;;;;;;;;5052335;28;20053;-65
2022/06/30 08:25:03;;;;;;;4.85;4.45;;;;;;;;;;5052270;28;20131;-65
2022/06/30 08:27:29;;;;;;;7.07;3.40;;;;;;;;;;5052714;28;20055;-65
2022/06/30 08:29:56;;;;;;;7.55;3.60;;;;;;;;;;5050940;28;20060;-65
2022/06/30 08:32:22;;;;;;;7.20;3.97;;;;;;;;;;5051960;28;20503;-65
2022/06/30 08:34:49;;;;;;;4.13;3.45;;;;;;;;;;5051997;28;20132;-65
2022/06/30 08:37:16;;;;;;;5.00;3.17;;;;;;;;;;5052284;28;20056;-65
2022/06/30 08:42:28;;;;;;;5.65;3.85;;;;;;;;;;5051977;28;20195;-65
2022/06/30 08:47:44;;;;;;;5.90;3.83;;;;;;;;;;5052857;28;20053;-65
2022/06/30 08:50:13;;;;;;;4.13;3.70;;;;;;;;;;5067502;28;20055;-65
2022/06/30 08:52:46;;;;;;;5.35;3.55;;;;;;;;;;5051617;28;20099;-66
2022/06/30 08:55:16;;;;;;;6.82;3.83;;;;;;;;;;5051713;28;20049;-65
2022/06/30 08:57:45;;;;;;;8.32;3.50;;;;;;;;;;5051623;28;20570;-65
2022/06/30 09:00:14;;;;;;;5.47;2.50;;;;;;;;;;5051813;28;20059;-66
2022/06/30 09:02:41;;;;;;;6.30;2.85;;;;;;;;;;5051887;28;20053;-66
2022/06/30 09:05:08;;;;;;;3.90;2.40;;;;;;;;;;5051896;28;20056;-65
2022/06/30 09:07:35;;;;;;;4.18;2.40;;;;;;;;;;5051804;28;20044;-66
2022/06/30 09:10:03;;;;;;;3.42;2.53;;;;;;;;;;5067177;28;20072;-65
2022/06/30 09:12:29;;;;;;;3.22;2.42;;;;;;;;;;5051498;28;20045;-65
2022/06/30 09:14:56;;;;;;;3.58;2.90;;;;;;;;;;5051666;28;20088;-65
2022/06/30 09:17:25;;;;;;;4.47;2.85;;;;;;;;;;5051509;28;20045;-66
2022/06/30 09:19:55;;;;;;;5.57;2.75;;;;;;;;;;5051868;28;20055;-66
2022/06/30 09:22:23;;;;;;;4.53;2.50;;;;;;;;;;5051417;28;20144;-66
2022/06/30 09:25:02;;;;;;;5.60;2.50;;;;;;;;;;5051456;28;20045;-65
2022/06/30 09:27:31;;;;;;;6.53;2.13;;;;;;;;;;5052170;28;20049;-66
2022/06/30 09:30:14;;;;;;;3.38;2.20;;;;;;;;;;5051624;28;20056;-66
2022/06/30 09:32:50;;;;;;;4.45;2.58;;;;;;;;;;5050159;28;20471;-65
2022/06/30 09:35:19;;;;;;;3.10;1.83;;;;;;;;;;5051591;28;20049;-66
2022/06/30 09:38:01;;;;;;;4.53;2.50;;;;;;;;;;5051340;28;20087;-66
2022/06/30 09:40:33;;;;;;;3.87;2.20;;;;;;;;;;5065502;28;20053;-66
2022/06/30 09:43:00;;;;;;;2.75;2.05;;;;;;;;;;5051118;28;20620;-65
2022/06/30 09:45:41;;;;;;;5.65;2.03;;;;;;;;;;5050049;28;20045;-66
2022/06/30 09:48:12;;;;;;;4.68;2.67;;;;;;;;;;5051309;28;20052;-66
2022/06/30 09:50:39;;;;;;;3.78;2.55;;;;;;;;;;5051706;28;20049;-65
2022/06/30 09:53:13;;;;;;;5.50;2.90;;;;;;;;;;5051270;28;20049;-66
2022/06/30 09:55:43;;;;;;;4.85;2.72;;;;;;;;;;5051144;28;20056;-66
2022/06/30 09:58:12;;;;;;;5.60;3.10;;;;;;;;;;5052665;28;20124;-66
2022/06/30 10:00:58;;;;;;;3.75;2.55;;;;;;;;;;5052747;28;20052;-66
2022/06/30 10:03:32;;;;;;;5.25;2.00;;;;;;;;;;5056307;28;20496;-67
2022/06/30 10:06:11;;;;;;;4.03;2.38;;;;;;;;;;5058983;28;20132;-66
2022/06/30 10:08:38;;;;;;;4.75;2.53;;;;;;;;;;5059945;28;20049;-67
2022/06/30 10:11:05;;;;;;;3.78;2.50;;;;;;;;;;5057616;28;20049;-67
2022/06/30 10:13:34;;;;;;;4.88;2.60;;;;;;;;;;5059276;28;20109;-67
2022/06/30 10:16:03;;;;;;;3.13;2.72;;;;;;;;;;5058296;28;20045;-67
2022/06/30 10:18:30;;;;;;;3.70;2.60;;;;;;;;;;5059919;28;20049;-67
2022/06/30 10:20:58;;;;;;;3.08;2.75;;;;;;;;;;5058257;28;20056;-66
2022/06/30 10:23:25;;;;;;;4.00;2.70;;;;;;;;;;5058992;28;20044;-67
2022/06/30 10:25:54;;;;;;;7.85;2.88;;;;;;;;;;5059977;28;20072;-67
2022/06/30 10:28:25;;;;;;;4.28;2.75;;;;;;;;;;5059882;28;20056;-66
2022/06/30 10:31:16;;;;;;;4.63;2.83;;;;;;;;;;5059877;28;20049;-67
2022/06/30 10:34:19;;;;;;;5.05;2.33;;;;;;;;;;5075418;28;20045;-67
2022/06/30 10:37:14;;;;;;;3.70;2.38;;;;;;;;;;5059489;28;20530;-67
2022/06/30 10:39:51;;;;;;;4.82;2.22;;;;;;;;;;5049535;28;20085;-67
2022/06/30 10:42:43;;;;;;;5.15;2.40;;;;;;;;;;5056144;28;20490;-67
2022/06/30 10:45:28;;;;;;;;;;;;;;;;;;5058929;28;20049;-67
2022/06/30 10:48:00;;;;;;;4.57;2.30;;;;;;;;;;5058486;28;20007;-67
2022/06/30 10:50:37;;;;;;;3.10;2.13;;;;;;;;;;5057483;28;20095;-67
2022/06/30 10:53:06;;;;;;;3.10;2.38;;;;;;;;;;5057087;28;20510;-67
2022/06/30 10:55:48;;;;;;;6.35;2.22;;;;;;;;;;5058632;28;20045;-66
2022/06/30 10:58:15;;;;;;;2.88;2.33;;;;;;;;;;5069391;28;20055;-66
2022/06/30 11:01:08;;;;;;;5.35;2.42;;;;;;;;;;5054002;28;20491;-64
2022/06/30 11:03:34;;;;;;;;;;;;;;;;;;5058017;28;20051;-64
2022/06/30 11:06:13;;;;;;;4.78;2.50;;;;;;;;;;5053899;28;19920;-64
2022/06/30 11:08:39;;;;;;;4.78;2.25;;;;;;;;;;5053734;28;20055;-66
2022/06/30 11:11:41;;;;;;;4.35;2.33;;;;;;;;;;5053034;28;20136;-66
2022/06/30 11:14:15;;;;;;;6.88;2.67;;;;;;;;;;5043200;28;20487;-66
2022/06/30 11:16:42;;;;;;;4.47;3.90;;;;;;;;;;5054031;28;20471;-66
2022/06/30 11:19:22;;;;;;;5.55;2.83;;;;;;;;;;5053507;28;20060;-67
2022/06/30 11:21:48;;;;;;;7.78;4.18;;;;;;;;;;5068857;28;20053;-66
2022/06/30 11:24:16;;;;;;;3.97;2.85;;;;;;;;;;5053731;28;20095;-66
2022/06/30 11:29:29;;;;;;;6.68;2.42;;;;;;;;;;5066378;28;20077;-66
2022/06/30 11:32:00;;;;;;;4.47;2.33;;;;;;;;;;5068545;28;20057;-66
2022/06/30 11:34:28;;;;;;;4.65;2.67;;;;;;;;;;5052290;28;20045;-66
2022/06/30 11:36:55;;;;;;;3.15;2.40;;;;;;;;;;5053412;28;20516;-66
2022/06/30 11:39:21;;;;;;;4.20;2.50;;;;;;;;;;5053282;28;20088;-65
2022/06/30 11:41:59;;;;;;;2.65;2.20;;;;;;;;;;5052928;28;20131;-66
2022/06/30 11:44:34;;;;;;;3.45;2.38;;;;;;;;;;5053291;28;20056;-66
2022/06/30 11:47:16;;;;;;;5.22;2.58;;;;;;;;;;5053087;28;20049;-65
2022/06/30 11:49:46;;;;;;;3.45;2.47;;;;;;;;;;5051900;28;20045;-65
2022/06/30 11:52:29;;;;;;;3.53;2.60;;;;;;;;;;5052887;28;20045;-65
2022/06/30 11:55:02;;;;;;;4.25;2.67;;;;;;;;;;5052754;28;20136;-65
2022/06/30 11:57:30;;;;;;;3.00;2.35;;;;;;;;;;5052943;28;20049;-66
2022/06/30 12:00:03;;;;;;;5.10;2.40;;;;;;;;;;5052673;28;20064;-65
2022/06/30 12:02:30;;;;;;;4.25;2.75;;;;;;;;;;5052763;28;20053;-66
2022/06/30 12:04:58;;;;;;;3.38;2.58;;;;;;;;;;5052639;28;20048;-65
2022/06/30 12:07:26;;;;;;;3.67;2.55;;;;;;;;;;5051382;28;20492;-65
2022/06/30 12:09:54;;;;;;;4.55;2.70;;;;;;;;;;5052574;28;20049;-66
2022/06/30 12:12:28;;;;;;;3.80;3.03;;;;;;;;;;5052366;28;20049;-67
2022/06/30 12:14:59;;;;;;;3.67;2.78;;;;;;;;;;5051956;28;20484;-67
2022/06/30 12:17:52;;;;;;;3.35;2.35;;;;;;;;;;5052468;28;20045;-65
2022/06/30 12:20:20;;;;;;;3.92;2.60;;;;;;;;;;5049722;28;20083;-66
2022/06/30 12:22:49;;;;;;;5.28;2.60;;;;;;;;;;5051941;28;20084;-65
2022/06/30 12:25:16;;;;;;;4.65;2.42;;;;;;;;;;5052479;28;20423;-65
2022/06/30 12:27:51;;;;;;;4.57;2.20;;;;;;;;;;5052289;28;20131;-65
2022/06/30 12:30:51;;;;;;;4.22;2.55;;;;;;;;;;5052538;28;20049;-65
2022/06/30 12:33:18;;;;;;;3.08;2.10;;;;;;;;;;5039576;28;20048;-65
2022/06/30 12:35:45;;;;;;;6.13;2.38;;;;;;;;;;5052123;28;20053;-67
2022/06/30 12:38:21;;;;;;;3.13;2.75;;;;;;;;;;5052180;28;20056;-66
2022/06/30 12:40:49;;;;;;;4.75;2.83;;;;;;;;;;5050880;28;20049;-65
2022/06/30 12:43:17;;;;;;;3.83;3.00;;;;;;;;;;5052170;28;20059;-66
2022/06/30 12:45:58;;;;;;;6.45;3.40;;;;;;;;;;5052665;28;20045;-66
2022/06/30 12:48:45;;;;;;;3.78;2.42;;;;;;;;;;5052207;28;20053;-66
2022/06/30 12:51:15;;;;;;;2.28;2.08;;;;;;;;;;5052050;28;20059;-66
2022/06/30 12:53:42;;;;;;;7.18;2.72;;;;;;;;;;5051713;28;20199;-65
2022/06/30 12:56:14;;;;;;;5.97;2.85;;;;;;;;;;5067362;28;20056;-66
2022/06/30 12:58:59;;;;;;;3.72;2.20;;;;;;;;;;5052306;28;20115;-66
2022/06/30 13:01:36;;;;;;;4.23;2.43;;;;;;;;;;5051890;28;20055;-67
2022/06/30 13:04:05;;;;;;;3.30;2.20;;;;;;;;;;5051778;28;20053;-66
2022/06/30 13:06:34;;;;;;;3.13;1.83;;;;;;;;;;5050786;28;20083;-66
2022/06/30 13:09:06;;;;;;;3.28;2.03;;;;;;;;;;5051679;28;20156;-66
2022/06/30 13:11:35;;;;;;;2.40;2.20;;;;;;;;;;5051517;28;20068;-66
2022/06/30 13:14:03;;;;;;;2.35;2.03;;;;;;;;;;5051719;28;20495;-66
2022/06/30 13:16:31;;;;;;;5.43;2.20;;;;;;;;;;5051761;28;20079;-66
2022/06/30 13:19:02;;;;;;;4.05;2.10;;;;;;;;;;5051419;28;20141;-66
2022/06/30 13:21:29;;;;;;;4.75;2.47;;;;;;;;;;5051451;28;20056;-66
2022/06/30 13:23:56;;;;;;;4.35;1.95;;;;;;;;;;5051300;28;20141;-67
2022/06/30 13:26:23;;;;;;;2.88;1.83;;;;;;;;;;5051456;28;20052;-66
2022/06/30 13:28:50;;;;;;;3.60;1.90;;;;;;;;;;5051614;28;20427;-66
2022/06/30 13:31:17;;;;;;;3.92;2.15;;;;;;;;;;5051433;28;20063;-66
2022/06/30 13:33:46;;;;;;;5.68;2.60;;;;;;;;;;5051363;28;20053;-66
2022/06/30 13:36:13;;;;;;;2.70;2.42;;;;;;;;;;5054397;28;20053;-66
2022/06/30 13:38:40;;;;;;;5.32;2.60;;;;;;;;;;5055366;28;20045;-66
2022/06/30 13:41:07;;;;;;;3.78;2.10;;;;;;;;;;5055320;28;20060;-65
2022/06/30 13:43:34;;;;;;;4.28;2.30;;;;;;;;;;5055531;28;20060;-65
2022/06/30 13:46:01;;;;;;;4.03;2.33;;;;;;;;;;5070698;28;20052;-66
2022/06/30 13:48:27;;;;;;;2.13;1.88;;;;;;;;;;5055226;28;20099;-67
2022/06/30 13:50:54;;;;;;;3.22;2.60;;;;;;;;;;5055159;28;20048;-66
2022/06/30 13:53:21;;;;;;;4.53;2.35;;;;;;;;;;5055038;28;20055;-66
2022/06/30 13:55:49;;;;;;;5.65;2.05;;;;;;;;;;5055368;28;20052;-66
2022/06/30 13:58:17;;;;;;;3.67;2.20;;;;;;;;;;5055307;28;20045;-66
2022/06/30 14:00:44;;;;;;;4.90;2.88;;;;;;;;;;5054844;28;20511;-66
2022/06/30 14:03:11;;;;;;;2.95;2.30;;;;;;;;;;5054981;28;20512;-66
2022/06/30 14:05:41;;;;;;;3.38;2.20;;;;;;;;;;5055061;28;20045;-66
2022/06/30 14:08:08;;;;;;;2.42;1.92;;;;;;;;;;5054846;28;20048;-67
2022/06/30 14:10:35;;;;;;;4.47;2.10;;;;;;;;;;5055073;28;20051;-66
2022/06/30 14:13:02;;;;;;;5.25;3.00;;;;;;;;;;5053505;28;20049;-66
2022/06/30 14:15:29;;;;;;;4.40;2.15;;;;;;;;;;5054934;28;20056;-66
2022/06/30 14:17:55;;;;;;;2.67;2.47;;;;;;;;;;5054968;28;20057;-66
2022/06/30 14:20:22;;;;;;;3.13;2.13;;;;;;;;;;5054424;28;20049;-66
2022/06/30 14:22:49;;;;;;;3.47;2.20;;;;;;;;;;5054612;28;20055;-66
2022/06/30 14:25:15;;;;;;;5.85;2.17;;;;;;;;;;5054589;28;20049;-65
2022/06/30 14:27:42;;;;;;;3.42;2.42;;;;;;;;;;5054746;28;20057;-66
2022/06/30 14:30:10;;;;;;;4.32;2.28;;;;;;;;;;5054438;28;20053;-66
2022/06/30 14:32:38;;;;;;;4.22;2.67;;;;;;;;;;5054796;28;20049;-65
2022/06/30 14:35:08;;;;;;;9.20;2.40;;;;;;;;;;5053167;28;20056;-66
2022/06/30 14:37:35;;;;;;;3.10;2.33;;;;;;;;;;5054704;28;20059;-66
2022/06/30 14:40:03;;;;;;;5.25;3.58;;;;;;;;;;5054478;28;20049;-66
2022/06/30 14:42:44;;;;;;;4.45;3.08;;;;;;;;;;5054072;28;20107;-66
2022/06/30 14:45:14;;;;;;;3.28;2.60;;;;;;;;;;5054219;28;20059;-66
2022/06/30 14:47:43;;;;;;;4.93;2.95;;;;;;;;;;5054414;28;20473;-66
2022/06/30 14:50:10;;;;;;;22.58;14.95;;;;;;;;;;5054643;28;20049;-66
2022/06/30 14:52:37;;;;;;;8.23;5.43;;;;;;;;;;5053830;28;20053;-66
2022/06/30 14:55:05;;;;;;;10.13;6.00;;;;;;;;;;5052713;28;20089;-66
2022/06/30 14:57:32;;;;;;;75.78;45.75;;;;;;;;;;5054425;28;20041;-65
2022/06/30 14:59:59;;;;;;;10.27;7.32;;;;;;;;;;5053647;28;20045;-66
2022/06/30 15:02:26;;;;;;;4.88;2.92;;;;;;;;;;5054154;28;20060;-65
2022/06/30 15:04:53;;;;;;;7.78;2.60;;;;;;;;;;5053819;28;20055;-66
2022/06/30 15:07:19;;;;;;;5.00;2.65;;;;;;;;;;5054028;28;20488;-66
2022/06/30 15:09:48;;;;;;;4.28;2.63;;;;;;;;;;5053599;28;20073;-66
2022/06/30 15:12:16;;;;;;;3.17;2.78;;;;;;;;;;5053220;28;20506;-66